sensor_id;sensor_type;location;lat;lon;timestamp;P1;durP1;ratioP1;P2;durP2;ratioP2
70850;SDS011;58475;49.662;9.636;2023-09-07T00:00:58;0.40;;;0.40;;
70850;SDS011;58475;49.662;9.636;2023-09-07T00:03:26;0.55;;;0.55;;
70850;SDS011;58475;49.662;9.636;2023-09-07T00:05:51;0.55;;;0.55;;
70850;SDS011;58475;49.662;9.636;2023-09-07T00:08:17;0.47;;;0.47;;
70850;SDS011;58475;49.662;9.636;2023-09-07T00:10:44;0.60;;;0.60;;
70850;SDS011;58475;49.662;9.636;2023-09-07T00:13:09;0.50;;;0.50;;
70850;SDS011;58475;49.662;9.636;2023-09-07T00:15:36;1.70;;;0.98;;
70850;SDS011;58475;49.662;9.636;2023-09-07T00:18:03;0.98;;;0.50;;
70850;SDS011;58475;49.662;9.636;2023-09-07T00:20:29;0.60;;;0.60;;
70850;SDS011;58475;49.662;9.636;2023-09-07T00:22:56;0.40;;;0.40;;
70850;SDS011;58475;49.662;9.636;2023-09-07T00:25:21;0.73;;;0.65;;
70850;SDS011;58475;49.662;9.636;2023-09-07T00:27:47;0.70;;;0.70;;
70850;SDS011;58475;49.662;9.636;2023-09-07T00:30:12;0.70;;;0.70;;
70850;SDS011;58475;49.662;9.636;2023-09-07T00:32:39;0.60;;;0.60;;
70850;SDS011;58475;49.662;9.636;2023-09-07T00:35:05;0.57;;;0.57;;
70850;SDS011;58475;49.662;9.636;2023-09-07T00:37:32;0.73;;;0.70;;
70850;SDS011;58475;49.662;9.636;2023-09-07T00:39:58;0.73;;;0.50;;
70850;SDS011;58475;49.662;9.636;2023-09-07T00:42:24;0.70;;;0.70;;
70850;SDS011;58475;49.662;9.636;2023-09-07T00:44:50;0.40;;;0.40;;
70850;SDS011;58475;49.662;9.636;2023-09-07T00:47:16;0.60;;;0.60;;
70850;SDS011;58475;49.662;9.636;2023-09-07T00:49:42;0.65;;;0.65;;
70850;SDS011;58475;49.662;9.636;2023-09-07T00:52:08;0.60;;;0.60;;
70850;SDS011;58475;49.662;9.636;2023-09-07T00:54:35;0.40;;;0.40;;
70850;SDS011;58475;49.662;9.636;2023-09-07T00:57:04;0.75;;;0.60;;
70850;SDS011;58475;49.662;9.636;2023-09-07T00:59:31;0.70;;;0.70;;
70850;SDS011;58475;49.662;9.636;2023-09-07T01:01:58;0.57;;;0.57;;
70850;SDS011;58475;49.662;9.636;2023-09-07T01:04:23;0.70;;;0.70;;
70850;SDS011;58475;49.662;9.636;2023-09-07T01:06:51;0.60;;;0.60;;
70850;SDS011;58475;49.662;9.636;2023-09-07T01:09:22;0.50;;;0.50;;
70850;SDS011;58475;49.662;9.636;2023-09-07T01:11:49;0.40;;;0.40;;
70850;SDS011;58475;49.662;9.636;2023-09-07T01:14:15;0.70;;;0.60;;
70850;SDS011;58475;49.662;9.636;2023-09-07T01:16:41;0.50;;;0.50;;
70850;SDS011;58475;49.662;9.636;2023-09-07T01:19:07;0.55;;;0.55;;
70850;SDS011;58475;49.662;9.636;2023-09-07T01:21:37;0.35;;;0.35;;
70850;SDS011;58475;49.662;9.636;2023-09-07T01:24:04;0.57;;;0.57;;
70850;SDS011;58475;49.662;9.636;2023-09-07T01:26:33;0.70;;;0.50;;
70850;SDS011;58475;49.662;9.636;2023-09-07T01:29:00;0.70;;;0.70;;
70850;SDS011;58475;49.662;9.636;2023-09-07T01:31:26;0.77;;;0.70;;
70850;SDS011;58475;49.662;9.636;2023-09-07T01:33:52;0.50;;;0.50;;
70850;SDS011;58475;49.662;9.636;2023-09-07T01:36:18;1.17;;;0.60;;
70850;SDS011;58475;49.662;9.636;2023-09-07T01:38:43;0.63;;;0.52;;
70850;SDS011;58475;49.662;9.636;2023-09-07T01:41:09;0.50;;;0.50;;
70850;SDS011;58475;49.662;9.636;2023-09-07T01:43:35;0.68;;;0.68;;
70850;SDS011;58475;49.662;9.636;2023-09-07T01:46:00;0.68;;;0.68;;
70850;SDS011;58475;49.662;9.636;2023-09-07T01:48:26;0.50;;;0.50;;
70850;SDS011;58475;49.662;9.636;2023-09-07T01:50:52;0.63;;;0.63;;
70850;SDS011;58475;49.662;9.636;2023-09-07T01:53:19;0.57;;;0.55;;
70850;SDS011;58475;49.662;9.636;2023-09-07T01:55:45;0.50;;;0.50;;
70850;SDS011;58475;49.662;9.636;2023-09-07T01:58:12;0.50;;;0.50;;
70850;SDS011;58475;49.662;9.636;2023-09-07T02:00:38;0.45;;;0.45;;
70850;SDS011;58475;49.662;9.636;2023-09-07T02:03:05;0.30;;;0.30;;
70850;SDS011;58475;49.662;9.636;2023-09-07T02:05:31;0.52;;;0.52;;
70850;SDS011;58475;49.662;9.636;2023-09-07T02:07:59;0.68;;;0.65;;
70850;SDS011;58475;49.662;9.636;2023-09-07T02:10:25;1.25;;;0.80;;
70850;SDS011;58475;49.662;9.636;2023-09-07T02:12:51;0.60;;;0.60;;
70850;SDS011;58475;49.662;9.636;2023-09-07T02:15:18;0.73;;;0.60;;
70850;SDS011;58475;49.662;9.636;2023-09-07T02:17:44;0.60;;;0.60;;
70850;SDS011;58475;49.662;9.636;2023-09-07T02:20:13;0.50;;;0.50;;
70850;SDS011;58475;49.662;9.636;2023-09-07T02:22:39;0.70;;;0.70;;
70850;SDS011;58475;49.662;9.636;2023-09-07T02:25:05;0.40;;;0.40;;
70850;SDS011;58475;49.662;9.636;2023-09-07T02:27:32;0.60;;;0.60;;
70850;SDS011;58475;49.662;9.636;2023-09-07T02:30:00;0.68;;;0.68;;
70850;SDS011;58475;49.662;9.636;2023-09-07T02:32:27;0.63;;;0.63;;
70850;SDS011;58475;49.662;9.636;2023-09-07T02:34:53;0.47;;;0.47;;
70850;SDS011;58475;49.662;9.636;2023-09-07T02:37:19;0.40;;;0.40;;
70850;SDS011;58475;49.662;9.636;2023-09-07T02:39:45;0.70;;;0.70;;
70850;SDS011;58475;49.662;9.636;2023-09-07T02:42:10;0.50;;;0.50;;
70850;SDS011;58475;49.662;9.636;2023-09-07T02:44:36;0.50;;;0.50;;
70850;SDS011;58475;49.662;9.636;2023-09-07T02:47:03;0.50;;;0.50;;
70850;SDS011;58475;49.662;9.636;2023-09-07T02:49:29;0.50;;;0.50;;
70850;SDS011;58475;49.662;9.636;2023-09-07T02:51:54;0.40;;;0.40;;
70850;SDS011;58475;49.662;9.636;2023-09-07T02:54:20;0.60;;;0.60;;
70850;SDS011;58475;49.662;9.636;2023-09-07T02:56:46;0.75;;;0.50;;
70850;SDS011;58475;49.662;9.636;2023-09-07T02:59:11;0.55;;;0.55;;
70850;SDS011;58475;49.662;9.636;2023-09-07T03:01:40;0.50;;;0.50;;
70850;SDS011;58475;49.662;9.636;2023-09-07T03:04:09;0.50;;;0.50;;
70850;SDS011;58475;49.662;9.636;2023-09-07T03:06:35;0.63;;;0.60;;
70850;SDS011;58475;49.662;9.636;2023-09-07T03:09:00;0.50;;;0.50;;
70850;SDS011;58475;49.662;9.636;2023-09-07T03:11:26;0.63;;;0.63;;
70850;SDS011;58475;49.662;9.636;2023-09-07T03:13:55;0.63;;;0.63;;
70850;SDS011;58475;49.662;9.636;2023-09-07T03:16:20;0.90;;;0.80;;
70850;SDS011;58475;49.662;9.636;2023-09-07T03:18:46;0.65;;;0.57;;
70850;SDS011;58475;49.662;9.636;2023-09-07T03:21:12;0.50;;;0.50;;
70850;SDS011;58475;49.662;9.636;2023-09-07T03:23:37;0.55;;;0.55;;
70850;SDS011;58475;49.662;9.636;2023-09-07T03:26:04;0.60;;;0.60;;
70850;SDS011;58475;49.662;9.636;2023-09-07T03:28:30;0.75;;;0.60;;
70850;SDS011;58475;49.662;9.636;2023-09-07T03:30:56;0.50;;;0.50;;
70850;SDS011;58475;49.662;9.636;2023-09-07T03:33:24;0.50;;;0.50;;
70850;SDS011;58475;49.662;9.636;2023-09-07T03:35:50;0.88;;;0.70;;
70850;SDS011;58475;49.662;9.636;2023-09-07T03:38:17;0.43;;;0.43;;
70850;SDS011;58475;49.662;9.636;2023-09-07T03:40:43;0.60;;;0.60;;
70850;SDS011;58475;49.662;9.636;2023-09-07T03:43:09;0.55;;;0.50;;
70850;SDS011;58475;49.662;9.636;2023-09-07T03:45:34;1.23;;;0.70;;
70850;SDS011;58475;49.662;9.636;2023-09-07T03:48:00;0.55;;;0.55;;
70850;SDS011;58475;49.662;9.636;2023-09-07T03:50:26;0.75;;;0.75;;
70850;SDS011;58475;49.662;9.636;2023-09-07T03:52:51;0.63;;;0.63;;
70850;SDS011;58475;49.662;9.636;2023-09-07T03:55:17;0.40;;;0.40;;
70850;SDS011;58475;49.662;9.636;2023-09-07T03:57:42;0.73;;;0.73;;
70850;SDS011;58475;49.662;9.636;2023-09-07T04:00:09;0.43;;;0.43;;
70850;SDS011;58475;49.662;9.636;2023-09-07T04:02:43;0.50;;;0.50;;
70850;SDS011;58475;49.662;9.636;2023-09-07T04:05:10;0.85;;;0.60;;
70850;SDS011;58475;49.662;9.636;2023-09-07T04:07:36;0.55;;;0.55;;
70850;SDS011;58475;49.662;9.636;2023-09-07T04:10:04;0.50;;;0.50;;
70850;SDS011;58475;49.662;9.636;2023-09-07T04:12:30;0.60;;;0.60;;
70850;SDS011;58475;49.662;9.636;2023-09-07T04:14:56;0.50;;;0.50;;
70850;SDS011;58475;49.662;9.636;2023-09-07T04:17:22;0.68;;;0.65;;
70850;SDS011;58475;49.662;9.636;2023-09-07T04:19:48;0.52;;;0.52;;
70850;SDS011;58475;49.662;9.636;2023-09-07T04:22:13;0.60;;;0.60;;
70850;SDS011;58475;49.662;9.636;2023-09-07T04:24:39;0.80;;;0.50;;
70850;SDS011;58475;49.662;9.636;2023-09-07T04:27:05;0.50;;;0.50;;
70850;SDS011;58475;49.662;9.636;2023-09-07T04:29:33;0.45;;;0.45;;
70850;SDS011;58475;49.662;9.636;2023-09-07T04:31:58;0.45;;;0.45;;
70850;SDS011;58475;49.662;9.636;2023-09-07T04:34:24;0.70;;;0.70;;
70850;SDS011;58475;49.662;9.636;2023-09-07T04:36:51;0.45;;;0.45;;
70850;SDS011;58475;49.662;9.636;2023-09-07T04:39:16;1.35;;;0.65;;
70850;SDS011;58475;49.662;9.636;2023-09-07T04:41:42;0.77;;;0.70;;
70850;SDS011;58475;49.662;9.636;2023-09-07T04:44:08;0.40;;;0.40;;
70850;SDS011;58475;49.662;9.636;2023-09-07T04:46:33;0.50;;;0.50;;
70850;SDS011;58475;49.662;9.636;2023-09-07T04:49:00;0.68;;;0.68;;
70850;SDS011;58475;49.662;9.636;2023-09-07T04:51:25;0.60;;;0.60;;
70850;SDS011;58475;49.662;9.636;2023-09-07T04:53:52;0.60;;;0.60;;
70850;SDS011;58475;49.662;9.636;2023-09-07T04:56:17;0.68;;;0.68;;
70850;SDS011;58475;49.662;9.636;2023-09-07T04:58:43;0.77;;;0.68;;
70850;SDS011;58475;49.662;9.636;2023-09-07T05:01:11;0.40;;;0.40;;
70850;SDS011;58475;49.662;9.636;2023-09-07T05:03:37;0.90;;;0.60;;
70850;SDS011;58475;49.662;9.636;2023-09-07T05:06:06;0.80;;;0.80;;
70850;SDS011;58475;49.662;9.636;2023-09-07T05:08:31;0.60;;;0.60;;
70850;SDS011;58475;49.662;9.636;2023-09-07T05:10:58;0.50;;;0.50;;
70850;SDS011;58475;49.662;9.636;2023-09-07T05:13:25;0.57;;;0.57;;
70850;SDS011;58475;49.662;9.636;2023-09-07T05:15:51;0.60;;;0.60;;
70850;SDS011;58475;49.662;9.636;2023-09-07T05:18:18;0.50;;;0.50;;
70850;SDS011;58475;49.662;9.636;2023-09-07T05:20:44;0.50;;;0.50;;
70850;SDS011;58475;49.662;9.636;2023-09-07T05:23:11;0.60;;;0.60;;
70850;SDS011;58475;49.662;9.636;2023-09-07T05:25:51;0.63;;;0.63;;
70850;SDS011;58475;49.662;9.636;2023-09-07T05:28:19;0.52;;;0.52;;
70850;SDS011;58475;49.662;9.636;2023-09-07T05:30:45;0.63;;;0.63;;
70850;SDS011;58475;49.662;9.636;2023-09-07T05:33:11;0.60;;;0.60;;
70850;SDS011;58475;49.662;9.636;2023-09-07T05:35:39;0.43;;;0.43;;
70850;SDS011;58475;49.662;9.636;2023-09-07T05:38:05;1.45;;;0.82;;
70850;SDS011;58475;49.662;9.636;2023-09-07T05:40:35;0.70;;;0.70;;
70850;SDS011;58475;49.662;9.636;2023-09-07T05:43:02;0.80;;;0.80;;
70850;SDS011;58475;49.662;9.636;2023-09-07T05:45:36;0.70;;;0.70;;
70850;SDS011;58475;49.662;9.636;2023-09-07T05:48:05;0.80;;;0.77;;
70850;SDS011;58475;49.662;9.636;2023-09-07T05:50:32;0.68;;;0.68;;
70850;SDS011;58475;49.662;9.636;2023-09-07T05:52:59;0.70;;;0.70;;
70850;SDS011;58475;49.662;9.636;2023-09-07T05:55:25;0.50;;;0.50;;
70850;SDS011;58475;49.662;9.636;2023-09-07T05:57:51;1.17;;;0.98;;
70850;SDS011;58475;49.662;9.636;2023-09-07T06:00:18;0.80;;;0.80;;
70850;SDS011;58475;49.662;9.636;2023-09-07T06:02:45;0.52;;;0.52;;
70850;SDS011;58475;49.662;9.636;2023-09-07T06:05:11;1.15;;;0.88;;
70850;SDS011;58475;49.662;9.636;2023-09-07T06:07:38;0.90;;;0.90;;
70850;SDS011;58475;49.662;9.636;2023-09-07T06:10:05;0.70;;;0.70;;
70850;SDS011;58475;49.662;9.636;2023-09-07T06:12:31;1.00;;;0.93;;
70850;SDS011;58475;49.662;9.636;2023-09-07T06:14:58;1.20;;;0.88;;
70850;SDS011;58475;49.662;9.636;2023-09-07T06:17:28;0.80;;;0.80;;
70850;SDS011;58475;49.662;9.636;2023-09-07T06:19:55;0.70;;;0.70;;
70850;SDS011;58475;49.662;9.636;2023-09-07T06:22:21;0.80;;;0.80;;
70850;SDS011;58475;49.662;9.636;2023-09-07T06:24:46;1.20;;;0.82;;
70850;SDS011;58475;49.662;9.636;2023-09-07T06:27:13;1.15;;;0.80;;
70850;SDS011;58475;49.662;9.636;2023-09-07T06:29:38;1.10;;;1.00;;
70850;SDS011;58475;49.662;9.636;2023-09-07T06:32:04;1.20;;;1.00;;
70850;SDS011;58475;49.662;9.636;2023-09-07T06:34:30;0.77;;;0.77;;
70850;SDS011;58475;49.662;9.636;2023-09-07T06:36:55;1.23;;;0.88;;
70850;SDS011;58475;49.662;9.636;2023-09-07T06:39:21;0.70;;;0.70;;
70850;SDS011;58475;49.662;9.636;2023-09-07T06:41:47;1.98;;;1.30;;
70850;SDS011;58475;49.662;9.636;2023-09-07T06:44:14;1.02;;;0.93;;
70850;SDS011;58475;49.662;9.636;2023-09-07T06:46:40;1.02;;;0.90;;
70850;SDS011;58475;49.662;9.636;2023-09-07T06:49:06;1.00;;;0.90;;
70850;SDS011;58475;49.662;9.636;2023-09-07T06:51:39;1.17;;;1.00;;
70850;SDS011;58475;49.662;9.636;2023-09-07T06:54:05;1.17;;;1.08;;
70850;SDS011;58475;49.662;9.636;2023-09-07T06:56:30;1.45;;;1.02;;
70850;SDS011;58475;49.662;9.636;2023-09-07T06:58:58;1.50;;;1.08;;
70850;SDS011;58475;49.662;9.636;2023-09-07T07:01:24;1.10;;;1.00;;
70850;SDS011;58475;49.662;9.636;2023-09-07T07:03:50;2.50;;;1.10;;
70850;SDS011;58475;49.662;9.636;2023-09-07T07:06:16;1.65;;;1.10;;
70850;SDS011;58475;49.662;9.636;2023-09-07T07:08:41;1.42;;;0.93;;
70850;SDS011;58475;49.662;9.636;2023-09-07T07:11:07;1.30;;;1.02;;
70850;SDS011;58475;49.662;9.636;2023-09-07T07:13:34;1.38;;;1.08;;
70850;SDS011;58475;49.662;9.636;2023-09-07T07:16:00;1.48;;;1.10;;
70850;SDS011;58475;49.662;9.636;2023-09-07T07:18:25;2.63;;;1.10;;
70850;SDS011;58475;49.662;9.636;2023-09-07T07:20:51;1.55;;;1.17;;
70850;SDS011;58475;49.662;9.636;2023-09-07T07:23:17;1.27;;;1.00;;
70850;SDS011;58475;49.662;9.636;2023-09-07T07:25:43;1.25;;;1.10;;
70850;SDS011;58475;49.662;9.636;2023-09-07T07:28:09;2.78;;;1.33;;
70850;SDS011;58475;49.662;9.636;2023-09-07T07:30:36;2.17;;;1.40;;
70850;SDS011;58475;49.662;9.636;2023-09-07T07:33:04;1.52;;;1.13;;
70850;SDS011;58475;49.662;9.636;2023-09-07T07:35:31;1.60;;;1.10;;
70850;SDS011;58475;49.662;9.636;2023-09-07T07:37:57;1.73;;;1.25;;
70850;SDS011;58475;49.662;9.636;2023-09-07T07:40:23;2.67;;;1.40;;
70850;SDS011;58475;49.662;9.636;2023-09-07T07:42:50;1.15;;;0.82;;
70850;SDS011;58475;49.662;9.636;2023-09-07T07:45:18;2.50;;;1.20;;
70850;SDS011;58475;49.662;9.636;2023-09-07T07:47:49;1.77;;;1.25;;
70850;SDS011;58475;49.662;9.636;2023-09-07T07:50:15;1.60;;;1.27;;
70850;SDS011;58475;49.662;9.636;2023-09-07T07:52:41;1.27;;;1.10;;
70850;SDS011;58475;49.662;9.636;2023-09-07T07:55:07;1.50;;;1.13;;
70850;SDS011;58475;49.662;9.636;2023-09-07T07:57:34;1.13;;;1.08;;
70850;SDS011;58475;49.662;9.636;2023-09-07T08:00:03;1.42;;;1.10;;
70850;SDS011;58475;49.662;9.636;2023-09-07T08:02:39;2.92;;;1.42;;
70850;SDS011;58475;49.662;9.636;2023-09-07T08:05:05;1.75;;;1.30;;
70850;SDS011;58475;49.662;9.636;2023-09-07T08:07:34;1.30;;;1.20;;
70850;SDS011;58475;49.662;9.636;2023-09-07T08:10:00;2.13;;;1.23;;
70850;SDS011;58475;49.662;9.636;2023-09-07T08:12:29;2.13;;;1.33;;
70850;SDS011;58475;49.662;9.636;2023-09-07T08:14:54;3.78;;;1.77;;
70850;SDS011;58475;49.662;9.636;2023-09-07T08:17:22;1.30;;;1.20;;
70850;SDS011;58475;49.662;9.636;2023-09-07T08:19:48;1.60;;;1.15;;
70850;SDS011;58475;49.662;9.636;2023-09-07T08:22:17;1.30;;;1.20;;
70850;SDS011;58475;49.662;9.636;2023-09-07T08:24:42;1.77;;;1.25;;
70850;SDS011;58475;49.662;9.636;2023-09-07T08:27:10;1.88;;;1.27;;
70850;SDS011;58475;49.662;9.636;2023-09-07T08:29:41;2.15;;;1.40;;
70850;SDS011;58475;49.662;9.636;2023-09-07T08:32:07;2.10;;;1.50;;
70850;SDS011;58475;49.662;9.636;2023-09-07T08:34:36;2.87;;;1.20;;
70850;SDS011;58475;49.662;9.636;2023-09-07T08:37:04;1.77;;;1.42;;
70850;SDS011;58475;49.662;9.636;2023-09-07T08:39:36;1.95;;;1.40;;
70850;SDS011;58475;49.662;9.636;2023-09-07T08:42:04;1.92;;;1.20;;
70850;SDS011;58475;49.662;9.636;2023-09-07T08:44:30;3.13;;;1.73;;
70850;SDS011;58475;49.662;9.636;2023-09-07T08:47:01;1.98;;;1.50;;
70850;SDS011;58475;49.662;9.636;2023-09-07T08:51:59;1.77;;;1.33;;
70850;SDS011;58475;49.662;9.636;2023-09-07T08:56:51;1.98;;;1.48;;
70850;SDS011;58475;49.662;9.636;2023-09-07T08:59:17;1.80;;;1.25;;
70850;SDS011;58475;49.662;9.636;2023-09-07T09:01:42;1.58;;;1.25;;
70850;SDS011;58475;49.662;9.636;2023-09-07T09:04:08;2.80;;;1.70;;
70850;SDS011;58475;49.662;9.636;2023-09-07T09:06:33;2.13;;;1.50;;
70850;SDS011;58475;49.662;9.636;2023-09-07T09:08:59;2.35;;;1.50;;
70850;SDS011;58475;49.662;9.636;2023-09-07T09:11:25;2.38;;;1.38;;
70850;SDS011;58475;49.662;9.636;2023-09-07T09:13:54;3.25;;;1.70;;
70850;SDS011;58475;49.662;9.636;2023-09-07T09:16:20;2.17;;;1.30;;
70850;SDS011;58475;49.662;9.636;2023-09-07T09:21:17;1.75;;;1.38;;
70850;SDS011;58475;49.662;9.636;2023-09-07T09:23:53;1.88;;;1.52;;
70850;SDS011;58475;49.662;9.636;2023-09-07T09:26:21;2.67;;;1.50;;
70850;SDS011;58475;49.662;9.636;2023-09-07T09:28:46;1.77;;;1.23;;
70850;SDS011;58475;49.662;9.636;2023-09-07T09:31:12;2.08;;;1.23;;
70850;SDS011;58475;49.662;9.636;2023-09-07T09:33:39;4.47;;;1.55;;
70850;SDS011;58475;49.662;9.636;2023-09-07T09:36:06;1.67;;;1.40;;
70850;SDS011;58475;49.662;9.636;2023-09-07T09:38:32;1.77;;;1.25;;
70850;SDS011;58475;49.662;9.636;2023-09-07T09:40:59;2.85;;;1.33;;
70850;SDS011;58475;49.662;9.636;2023-09-07T09:43:25;1.88;;;1.23;;
70850;SDS011;58475;49.662;9.636;2023-09-07T09:45:51;2.22;;;1.48;;
70850;SDS011;58475;49.662;9.636;2023-09-07T09:48:21;2.17;;;1.30;;
70850;SDS011;58475;49.662;9.636;2023-09-07T09:50:47;2.28;;;1.52;;
70850;SDS011;58475;49.662;9.636;2023-09-07T09:53:15;2.13;;;1.30;;
70850;SDS011;58475;49.662;9.636;2023-09-07T09:55:52;2.38;;;1.40;;
70850;SDS011;58475;49.662;9.636;2023-09-07T09:58:18;2.17;;;1.45;;
70850;SDS011;58475;49.662;9.636;2023-09-07T10:00:44;2.63;;;1.38;;
70850;SDS011;58475;49.662;9.636;2023-09-07T10:03:20;2.00;;;1.25;;
70850;SDS011;58475;49.662;9.636;2023-09-07T10:05:49;3.13;;;1.67;;
70850;SDS011;58475;49.662;9.636;2023-09-07T10:08:15;2.60;;;1.50;;
70850;SDS011;58475;49.662;9.636;2023-09-07T10:10:43;2.38;;;1.40;;
70850;SDS011;58475;49.662;9.636;2023-09-07T10:13:13;1.83;;;1.25;;
70850;SDS011;58475;49.662;9.636;2023-09-07T10:15:39;1.55;;;1.38;;
70850;SDS011;58475;49.662;9.636;2023-09-07T10:18:15;1.40;;;1.20;;
70850;SDS011;58475;49.662;9.636;2023-09-07T10:20:57;2.58;;;1.50;;
70850;SDS011;58475;49.662;9.636;2023-09-07T10:23:45;3.22;;;1.50;;
70850;SDS011;58475;49.662;9.636;2023-09-07T10:26:17;3.05;;;1.65;;
70850;SDS011;58475;49.662;9.636;2023-09-07T10:31:17;3.78;;;1.63;;
70850;SDS011;58475;49.662;9.636;2023-09-07T10:33:45;1.48;;;1.20;;
70850;SDS011;58475;49.662;9.636;2023-09-07T10:39:06;1.27;;;1.13;;
70850;SDS011;58475;49.662;9.636;2023-09-07T10:41:39;2.38;;;1.48;;
70850;SDS011;58475;49.662;9.636;2023-09-07T10:44:08;2.72;;;1.67;;
70850;SDS011;58475;49.662;9.636;2023-09-07T10:46:35;3.00;;;1.50;;
70850;SDS011;58475;49.662;9.636;2023-09-07T10:49:08;2.83;;;1.50;;
70850;SDS011;58475;49.662;9.636;2023-09-07T10:51:43;1.73;;;1.30;;
70850;SDS011;58475;49.662;9.636;2023-09-07T10:54:14;2.00;;;1.20;;
70850;SDS011;58475;49.662;9.636;2023-09-07T10:56:42;1.48;;;1.10;;
70850;SDS011;58475;49.662;9.636;2023-09-07T10:59:09;1.55;;;1.10;;
70850;SDS011;58475;49.662;9.636;2023-09-07T11:01:35;1.98;;;1.27;;
70850;SDS011;58475;49.662;9.636;2023-09-07T11:04:00;1.75;;;1.35;;
70850;SDS011;58475;49.662;9.636;2023-09-07T11:06:26;1.65;;;1.20;;
70850;SDS011;58475;49.662;9.636;2023-09-07T11:08:51;2.03;;;1.30;;
70850;SDS011;58475;49.662;9.636;2023-09-07T11:11:17;1.70;;;1.20;;
70850;SDS011;58475;49.662;9.636;2023-09-07T11:13:42;2.60;;;1.40;;
70850;SDS011;58475;49.662;9.636;2023-09-07T11:16:09;2.78;;;1.55;;
70850;SDS011;58475;49.662;9.636;2023-09-07T11:18:34;1.77;;;1.30;;
70850;SDS011;58475;49.662;9.636;2023-09-07T11:21:03;2.03;;;1.25;;
70850;SDS011;58475;49.662;9.636;2023-09-07T11:23:30;2.47;;;1.50;;
70850;SDS011;58475;49.662;9.636;2023-09-07T11:26:07;2.35;;;1.45;;
70850;SDS011;58475;49.662;9.636;2023-09-07T11:28:33;1.77;;;1.15;;
70850;SDS011;58475;49.662;9.636;2023-09-07T11:30:59;1.75;;;1.30;;
70850;SDS011;58475;49.662;9.636;2023-09-07T11:33:25;1.80;;;1.20;;
70850;SDS011;58475;49.662;9.636;2023-09-07T11:35:51;1.52;;;1.27;;
70850;SDS011;58475;49.662;9.636;2023-09-07T11:38:20;2.50;;;1.25;;
70850;SDS011;58475;49.662;9.636;2023-09-07T11:40:48;2.13;;;1.20;;
70850;SDS011;58475;49.662;9.636;2023-09-07T11:43:14;2.03;;;1.38;;
70850;SDS011;58475;49.662;9.636;2023-09-07T11:45:44;2.25;;;1.35;;
70850;SDS011;58475;49.662;9.636;2023-09-07T11:48:11;1.80;;;1.15;;
70850;SDS011;58475;49.662;9.636;2023-09-07T11:50:36;2.10;;;1.20;;
70850;SDS011;58475;49.662;9.636;2023-09-07T11:53:06;1.92;;;1.20;;
70850;SDS011;58475;49.662;9.636;2023-09-07T11:55:33;1.75;;;1.20;;
70850;SDS011;58475;49.662;9.636;2023-09-07T11:57:59;2.05;;;1.30;;
70850;SDS011;58475;49.662;9.636;2023-09-07T12:00:26;1.65;;;1.10;;
70850;SDS011;58475;49.662;9.636;2023-09-07T12:02:51;1.90;;;1.13;;
70850;SDS011;58475;49.662;9.636;2023-09-07T12:05:19;2.30;;;1.40;;
70850;SDS011;58475;49.662;9.636;2023-09-07T12:07:45;1.92;;;1.30;;
70850;SDS011;58475;49.662;9.636;2023-09-07T12:10:13;2.05;;;1.20;;
70850;SDS011;58475;49.662;9.636;2023-09-07T12:12:39;2.45;;;1.40;;
70850;SDS011;58475;49.662;9.636;2023-09-07T12:15:06;1.40;;;0.98;;
70850;SDS011;58475;49.662;9.636;2023-09-07T12:17:32;1.42;;;1.10;;
70850;SDS011;58475;49.662;9.636;2023-09-07T12:19:59;1.58;;;1.15;;
70850;SDS011;58475;49.662;9.636;2023-09-07T12:24:54;3.85;;;1.67;;
70850;SDS011;58475;49.662;9.636;2023-09-07T12:27:19;1.92;;;1.27;;
70850;SDS011;58475;49.662;9.636;2023-09-07T12:29:45;2.53;;;1.20;;
70850;SDS011;58475;49.662;9.636;2023-09-07T12:32:10;2.35;;;1.25;;
70850;SDS011;58475;49.662;9.636;2023-09-07T12:34:36;1.58;;;1.30;;
70850;SDS011;58475;49.662;9.636;2023-09-07T12:37:02;1.73;;;1.17;;
70850;SDS011;58475;49.662;9.636;2023-09-07T12:39:30;1.75;;;1.10;;
70850;SDS011;58475;49.662;9.636;2023-09-07T12:41:56;1.92;;;1.15;;
70850;SDS011;58475;49.662;9.636;2023-09-07T12:44:22;1.95;;;1.30;;
70850;SDS011;58475;49.662;9.636;2023-09-07T12:46:47;1.92;;;1.30;;
70850;SDS011;58475;49.662;9.636;2023-09-07T12:49:13;2.08;;;1.30;;
70850;SDS011;58475;49.662;9.636;2023-09-07T12:51:40;1.33;;;1.17;;
70850;SDS011;58475;49.662;9.636;2023-09-07T12:54:06;2.58;;;1.23;;
70850;SDS011;58475;49.662;9.636;2023-09-07T12:56:32;1.38;;;1.10;;
70850;SDS011;58475;49.662;9.636;2023-09-07T12:58:57;1.95;;;1.30;;
70850;SDS011;58475;49.662;9.636;2023-09-07T13:01:25;3.47;;;1.25;;
70850;SDS011;58475;49.662;9.636;2023-09-07T13:03:50;1.95;;;1.17;;
70850;SDS011;58475;49.662;9.636;2023-09-07T13:06:19;1.77;;;1.20;;
70850;SDS011;58475;49.662;9.636;2023-09-07T13:08:45;2.08;;;1.38;;
70850;SDS011;58475;49.662;9.636;2023-09-07T13:11:11;1.52;;;1.20;;
70850;SDS011;58475;49.662;9.636;2023-09-07T13:13:37;2.25;;;1.23;;
70850;SDS011;58475;49.662;9.636;2023-09-07T13:16:06;3.22;;;1.30;;
70850;SDS011;58475;49.662;9.636;2023-09-07T13:18:31;1.98;;;1.20;;
70850;SDS011;58475;49.662;9.636;2023-09-07T13:20:57;2.25;;;1.30;;
70850;SDS011;58475;49.662;9.636;2023-09-07T13:23:26;1.90;;;1.30;;
70850;SDS011;58475;49.662;9.636;2023-09-07T13:25:53;1.90;;;1.35;;
70850;SDS011;58475;49.662;9.636;2023-09-07T13:28:21;1.63;;;1.23;;
70850;SDS011;58475;49.662;9.636;2023-09-07T13:30:48;2.13;;;1.23;;
70850;SDS011;58475;49.662;9.636;2023-09-07T13:33:15;2.05;;;1.27;;
70850;SDS011;58475;49.662;9.636;2023-09-07T13:35:41;2.22;;;1.30;;
70850;SDS011;58475;49.662;9.636;2023-09-07T13:38:06;1.80;;;1.30;;
70850;SDS011;58475;49.662;9.636;2023-09-07T13:40:32;2.40;;;1.40;;
70850;SDS011;58475;49.662;9.636;2023-09-07T13:42:58;3.13;;;1.40;;
70850;SDS011;58475;49.662;9.636;2023-09-07T13:45:23;1.80;;;1.30;;
70850;SDS011;58475;49.662;9.636;2023-09-07T13:47:49;2.50;;;1.30;;
70850;SDS011;58475;49.662;9.636;2023-09-07T13:50:15;1.13;;;1.00;;
70850;SDS011;58475;49.662;9.636;2023-09-07T13:52:43;1.30;;;1.00;;
70850;SDS011;58475;49.662;9.636;2023-09-07T13:55:09;3.22;;;1.40;;
70850;SDS011;58475;49.662;9.636;2023-09-07T13:57:34;2.03;;;1.17;;
70850;SDS011;58475;49.662;9.636;2023-09-07T14:00:00;2.00;;;1.33;;
70850;SDS011;58475;49.662;9.636;2023-09-07T14:02:29;2.75;;;1.35;;
70850;SDS011;58475;49.662;9.636;2023-09-07T14:04:58;1.38;;;1.00;;
70850;SDS011;58475;49.662;9.636;2023-09-07T14:07:24;1.70;;;1.30;;
70850;SDS011;58475;49.662;9.636;2023-09-07T14:09:53;2.45;;;1.40;;
70850;SDS011;58475;49.662;9.636;2023-09-07T14:12:19;2.00;;;1.13;;
70850;SDS011;58475;49.662;9.636;2023-09-07T14:14:45;2.00;;;1.30;;
70850;SDS011;58475;49.662;9.636;2023-09-07T14:17:13;2.80;;;1.55;;
70850;SDS011;58475;49.662;9.636;2023-09-07T14:19:39;2.03;;;1.30;;
70850;SDS011;58475;49.662;9.636;2023-09-07T14:22:04;2.35;;;1.27;;
70850;SDS011;58475;49.662;9.636;2023-09-07T14:24:30;1.40;;;1.10;;
70850;SDS011;58475;49.662;9.636;2023-09-07T14:26:55;2.58;;;1.48;;
70850;SDS011;58475;49.662;9.636;2023-09-07T14:29:21;2.20;;;1.27;;
70850;SDS011;58475;49.662;9.636;2023-09-07T14:31:46;1.98;;;1.30;;
70850;SDS011;58475;49.662;9.636;2023-09-07T14:34:12;2.08;;;1.13;;
70850;SDS011;58475;49.662;9.636;2023-09-07T14:36:38;1.73;;;1.30;;
70850;SDS011;58475;49.662;9.636;2023-09-07T14:39:06;1.33;;;0.95;;
70850;SDS011;58475;49.662;9.636;2023-09-07T14:41:32;2.60;;;1.42;;
70850;SDS011;58475;49.662;9.636;2023-09-07T14:43:59;2.58;;;1.30;;
70850;SDS011;58475;49.662;9.636;2023-09-07T14:46:24;1.40;;;1.10;;
70850;SDS011;58475;49.662;9.636;2023-09-07T14:48:55;2.38;;;1.40;;
70850;SDS011;58475;49.662;9.636;2023-09-07T14:51:23;1.95;;;1.17;;
70850;SDS011;58475;49.662;9.636;2023-09-07T14:53:49;2.40;;;1.27;;
70850;SDS011;58475;49.662;9.636;2023-09-07T14:56:17;1.38;;;1.00;;
70850;SDS011;58475;49.662;9.636;2023-09-07T14:58:43;2.53;;;1.40;;
70850;SDS011;58475;49.662;9.636;2023-09-07T15:01:09;1.30;;;1.05;;